sensor_id;sensor_type;location;lat;lon;timestamp;pressure;altitude;pressure_sealevel;temperature;humidity
37832;BME280;23671;38.090;-122.570;2023-03-04T00:00:09;101485.81;;;15.37;63.72
37832;BME280;23671;38.090;-122.570;2023-03-04T00:02:36;101475.19;;;15.37;63.59
37832;BME280;23671;38.090;-122.570;2023-03-04T00:05:04;101486.81;;;15.36;63.51
37832;BME280;23671;38.090;-122.570;2023-03-04T00:07:31;101486.94;;;15.35;63.49
37832;BME280;23671;38.090;-122.570;2023-03-04T00:09:58;101479.78;;;15.35;63.46
37832;BME280;23671;38.090;-122.570;2023-03-04T00:12:25;101482.75;;;15.32;63.59
37832;BME280;23671;38.090;-122.570;2023-03-04T00:14:52;101480.06;;;15.32;63.25
37832;BME280;23671;38.090;-122.570;2023-03-04T00:17:19;101479.38;;;15.30;63.35
37832;BME280;23671;38.090;-122.570;2023-03-04T00:19:46;101482.75;;;15.32;63.15
37832;BME280;23671;38.090;-122.570;2023-03-04T00:22:13;101481.19;;;15.30;63.15
37832;BME280;23671;38.090;-122.570;2023-03-04T00:24:40;101469.97;;;15.26;63.01
37832;BME280;23671;38.090;-122.570;2023-03-04T00:27:07;101470.09;;;15.25;62.81
37832;BME280;23671;38.090;-122.570;2023-03-04T00:29:34;101460.56;;;15.22;62.95
37832;BME280;23671;38.090;-122.570;2023-03-04T00:32:01;101458.84;;;15.21;62.59
37832;BME280;23671;38.090;-122.570;2023-03-04T00:34:28;101463.59;;;15.18;62.51
37832;BME280;23671;38.090;-122.570;2023-03-04T00:36:55;101464.59;;;15.17;62.62
37832;BME280;23671;38.090;-122.570;2023-03-04T00:39:29;101460.38;;;15.14;62.54
37832;BME280;23671;38.090;-122.570;2023-03-04T00:41:57;101460.38;;;15.14;62.65
37832;BME280;23671;38.090;-122.570;2023-03-04T00:44:24;101448.31;;;15.10;62.41
37832;BME280;23671;38.090;-122.570;2023-03-04T00:46:51;101438.66;;;15.09;62.25
37832;BME280;23671;38.090;-122.570;2023-03-04T00:49:18;101445.94;;;15.07;62.12
37832;BME280;23671;38.090;-122.570;2023-03-04T00:51:45;101444.22;;;15.06;61.96
37832;BME280;23671;38.090;-122.570;2023-03-04T00:54:12;101452.22;;;15.06;61.60
37832;BME280;23671;38.090;-122.570;2023-03-04T00:56:39;101455.13;;;15.03;61.87
37832;BME280;23671;38.090;-122.570;2023-03-04T00:59:06;101460.00;;;14.98;61.30
37832;BME280;23671;38.090;-122.570;2023-03-04T01:01:33;101456.66;;;14.96;60.58
37832;BME280;23671;38.090;-122.570;2023-03-04T01:04:00;101463.78;;;14.96;61.17
37832;BME280;23671;38.090;-122.570;2023-03-04T01:06:28;101461.50;;;14.91;61.21
37832;BME280;23671;38.090;-122.570;2023-03-04T01:08:55;101468.75;;;14.89;60.65
37832;BME280;23671;38.090;-122.570;2023-03-04T01:11:22;101469.41;;;14.82;60.89
37832;BME280;23671;38.090;-122.570;2023-03-04T01:13:49;101456.13;;;14.82;60.59
37832;BME280;23671;38.090;-122.570;2023-03-04T01:16:16;101458.91;;;14.80;61.42
37832;BME280;23671;38.090;-122.570;2023-03-04T01:18:43;101442.41;;;14.77;61.59
37832;BME280;23671;38.090;-122.570;2023-03-04T01:21:10;101440.13;;;14.72;60.86
37832;BME280;23671;38.090;-122.570;2023-03-04T01:23:37;101447.50;;;14.69;60.92
37832;BME280;23671;38.090;-122.570;2023-03-04T01:26:04;101442.34;;;14.67;60.80
37832;BME280;23671;38.090;-122.570;2023-03-04T01:28:31;101445.38;;;14.63;60.92
37832;BME280;23671;38.090;-122.570;2023-03-04T01:31:05;101449.84;;;14.62;60.70
37832;BME280;23671;38.090;-122.570;2023-03-04T01:33:32;101454.34;;;14.62;60.53
37832;BME280;23671;38.090;-122.570;2023-03-04T01:35:59;101453.72;;;14.58;60.96
37832;BME280;23671;38.090;-122.570;2023-03-04T01:38:26;101450.88;;;14.50;61.24
37832;BME280;23671;38.090;-122.570;2023-03-04T01:40:53;101449.19;;;14.49;61.03
37832;BME280;23671;38.090;-122.570;2023-03-04T01:43:29;101447.75;;;14.45;60.77
37832;BME280;23671;38.090;-122.570;2023-03-04T01:45:57;101430.97;;;14.44;60.74
37832;BME280;23671;38.090;-122.570;2023-03-04T01:48:28;101427.00;;;14.39;60.67
37832;BME280;23671;38.090;-122.570;2023-03-04T01:50:57;101426.56;;;14.34;61.49
37832;BME280;23671;38.090;-122.570;2023-03-04T01:53:33;101452.28;;;14.33;61.05
37832;BME280;23671;38.090;-122.570;2023-03-04T01:56:15;101445.41;;;14.31;61.25
37832;BME280;23671;38.090;-122.570;2023-03-04T01:58:42;101443.47;;;14.22;60.92
37832;BME280;23671;38.090;-122.570;2023-03-04T02:01:11;101447.34;;;14.18;61.56
37832;BME280;23671;38.090;-122.570;2023-03-04T02:03:38;101446.41;;;14.19;61.57
37832;BME280;23671;38.090;-122.570;2023-03-04T02:06:06;101437.13;;;14.13;61.56
37832;BME280;23671;38.090;-122.570;2023-03-04T02:08:34;101434.00;;;14.08;60.75
37832;BME280;23671;38.090;-122.570;2023-03-04T02:11:01;101433.66;;;14.02;61.43
37832;BME280;23671;38.090;-122.570;2023-03-04T02:13:28;101433.53;;;14.03;60.84
37832;BME280;23671;38.090;-122.570;2023-03-04T02:15:55;101434.38;;;14.04;60.88
37832;BME280;23671;38.090;-122.570;2023-03-04T02:18:23;101432.94;;;14.00;60.87
37832;BME280;23671;38.090;-122.570;2023-03-04T02:21:02;101435.84;;;13.97;60.83
37832;BME280;23671;38.090;-122.570;2023-03-04T02:26:12;101424.03;;;13.90;60.32
37832;BME280;23671;38.090;-122.570;2023-03-04T02:28:39;101428.28;;;13.81;60.15
37832;BME280;23671;38.090;-122.570;2023-03-04T02:31:10;101426.97;;;13.76;60.26
37832;BME280;23671;38.090;-122.570;2023-03-04T02:33:45;101431.19;;;13.78;60.00
37832;BME280;23671;38.090;-122.570;2023-03-04T02:36:12;101431.56;;;13.74;60.03
37832;BME280;23671;38.090;-122.570;2023-03-04T02:38:40;101426.16;;;13.64;60.93
37832;BME280;23671;38.090;-122.570;2023-03-04T02:41:12;101431.59;;;13.62;60.92
37832;BME280;23671;38.090;-122.570;2023-03-04T02:43:40;101434.00;;;13.54;61.00
37832;BME280;23671;38.090;-122.570;2023-03-04T02:46:11;101443.16;;;13.50;61.23
37832;BME280;23671;38.090;-122.570;2023-03-04T02:48:38;101433.53;;;13.49;60.23
37832;BME280;23671;38.090;-122.570;2023-03-04T02:51:06;101441.25;;;13.41;61.52
37832;BME280;23671;38.090;-122.570;2023-03-04T02:53:33;101443.53;;;13.35;60.70
37832;BME280;23671;38.090;-122.570;2023-03-04T02:56:00;101426.31;;;13.29;60.56
37832;BME280;23671;38.090;-122.570;2023-03-04T02:58:27;101434.41;;;13.28;60.66
37832;BME280;23671;38.090;-122.570;2023-03-04T03:00:54;101438.59;;;13.19;61.86
37832;BME280;23671;38.090;-122.570;2023-03-04T03:03:21;101431.75;;;13.17;60.93
37832;BME280;23671;38.090;-122.570;2023-03-04T03:05:48;101428.59;;;13.12;61.52
37832;BME280;23671;38.090;-122.570;2023-03-04T03:08:16;101435.22;;;13.06;61.65
37832;BME280;23671;38.090;-122.570;2023-03-04T03:10:43;101442.44;;;13.04;61.31
37832;BME280;23671;38.090;-122.570;2023-03-04T03:13:10;101449.78;;;13.01;60.92
37832;BME280;23671;38.090;-122.570;2023-03-04T03:15:40;101450.03;;;12.98;61.55
37832;BME280;23671;38.090;-122.570;2023-03-04T03:18:10;101441.22;;;12.97;60.32
37832;BME280;23671;38.090;-122.570;2023-03-04T03:20:37;101430.63;;;12.97;59.57
37832;BME280;23671;38.090;-122.570;2023-03-04T03:23:04;101429.38;;;12.90;60.61
37832;BME280;23671;38.090;-122.570;2023-03-04T03:25:32;101413.84;;;12.86;60.23
37832;BME280;23671;38.090;-122.570;2023-03-04T03:27:59;101421.09;;;12.84;59.06
37832;BME280;23671;38.090;-122.570;2023-03-04T03:30:26;101418.78;;;12.79;58.40
37832;BME280;23671;38.090;-122.570;2023-03-04T03:32:53;101409.50;;;12.73;58.66
37832;BME280;23671;38.090;-122.570;2023-03-04T03:35:21;101411.88;;;12.65;59.01
37832;BME280;23671;38.090;-122.570;2023-03-04T03:37:48;101423.59;;;12.63;58.99
37832;BME280;23671;38.090;-122.570;2023-03-04T03:40:15;101411.53;;;12.59;59.07
37832;BME280;23671;38.090;-122.570;2023-03-04T03:42:42;101405.13;;;12.50;58.71
37832;BME280;23671;38.090;-122.570;2023-03-04T03:45:09;101401.88;;;12.47;59.50
37832;BME280;23671;38.090;-122.570;2023-03-04T03:47:36;101399.56;;;12.42;59.08
37832;BME280;23671;38.090;-122.570;2023-03-04T03:50:03;101394.63;;;12.38;58.83
37832;BME280;23671;38.090;-122.570;2023-03-04T03:52:31;101395.09;;;12.32;58.82
37832;BME280;23671;38.090;-122.570;2023-03-04T03:54:58;101401.44;;;12.29;59.40
37832;BME280;23671;38.090;-122.570;2023-03-04T03:57:28;101396.59;;;12.23;59.18
37832;BME280;23671;38.090;-122.570;2023-03-04T03:59:55;101410.91;;;12.21;59.26
37832;BME280;23671;38.090;-122.570;2023-03-04T04:02:22;101404.06;;;12.18;59.08
37832;BME280;23671;38.090;-122.570;2023-03-04T04:04:49;101405.13;;;12.16;59.38
37832;BME280;23671;38.090;-122.570;2023-03-04T04:07:17;101410.88;;;12.10;58.85
37832;BME280;23671;38.090;-122.570;2023-03-04T04:09:44;101404.97;;;12.06;59.55
37832;BME280;23671;38.090;-122.570;2023-03-04T04:12:14;101401.59;;;12.04;59.45
37832;BME280;23671;38.090;-122.570;2023-03-04T04:14:42;101404.69;;;11.98;59.01
37832;BME280;23671;38.090;-122.570;2023-03-04T04:17:10;101402.28;;;11.95;59.50
37832;BME280;23671;38.090;-122.570;2023-03-04T04:19:41;101398.16;;;11.91;59.56
37832;BME280;23671;38.090;-122.570;2023-03-04T04:22:13;101399.34;;;11.87;59.44
37832;BME280;23671;38.090;-122.570;2023-03-04T04:24:41;101398.81;;;11.82;59.63
37832;BME280;23671;38.090;-122.570;2023-03-04T04:27:08;101403.50;;;11.78;59.74
37832;BME280;23671;38.090;-122.570;2023-03-04T04:29:35;101404.06;;;11.71;59.78
37832;BME280;23671;38.090;-122.570;2023-03-04T04:32:03;101393.06;;;11.64;59.83
37832;BME280;23671;38.090;-122.570;2023-03-04T04:34:30;101407.47;;;11.60;59.60
37832;BME280;23671;38.090;-122.570;2023-03-04T04:36:58;101404.41;;;11.54;59.84
37832;BME280;23671;38.090;-122.570;2023-03-04T04:39:25;101397.66;;;11.50;59.80
37832;BME280;23671;38.090;-122.570;2023-03-04T04:41:52;101378.63;;;11.45;59.88
37832;BME280;23671;38.090;-122.570;2023-03-04T04:44:19;101387.63;;;11.42;60.17
37832;BME280;23671;38.090;-122.570;2023-03-04T04:46:46;101387.13;;;11.37;60.02
37832;BME280;23671;38.090;-122.570;2023-03-04T04:49:13;101399.72;;;11.34;60.09
37832;BME280;23671;38.090;-122.570;2023-03-04T04:51:40;101401.72;;;11.30;59.94
37832;BME280;23671;38.090;-122.570;2023-03-04T04:54:07;101394.13;;;11.26;60.32
37832;BME280;23671;38.090;-122.570;2023-03-04T04:56:34;101388.09;;;11.24;60.32
37832;BME280;23671;38.090;-122.570;2023-03-04T04:59:03;101392.97;;;11.17;60.52
37832;BME280;23671;38.090;-122.570;2023-03-04T05:01:31;101398.38;;;11.16;60.43
37832;BME280;23671;38.090;-122.570;2023-03-04T05:03:58;101401.34;;;11.11;60.50
37832;BME280;23671;38.090;-122.570;2023-03-04T05:06:25;101406.63;;;11.11;60.50
37832;BME280;23671;38.090;-122.570;2023-03-04T05:08:52;101402.50;;;11.07;60.68
37832;BME280;23671;38.090;-122.570;2023-03-04T05:11:20;101400.09;;;11.04;60.98
37832;BME280;23671;38.090;-122.570;2023-03-04T05:13:48;101409.19;;;11.00;60.72
37832;BME280;23671;38.090;-122.570;2023-03-04T05:16:16;101407.59;;;10.97;60.60
37832;BME280;23671;38.090;-122.570;2023-03-04T05:18:44;101409.59;;;10.94;60.67
37832;BME280;23671;38.090;-122.570;2023-03-04T05:21:12;101410.75;;;10.90;60.78
37832;BME280;23671;38.090;-122.570;2023-03-04T05:23:40;101414.25;;;10.90;60.81
37832;BME280;23671;38.090;-122.570;2023-03-04T05:26:10;101397.78;;;10.87;60.84
37832;BME280;23671;38.090;-122.570;2023-03-04T05:28:39;101404.97;;;10.85;60.97
37832;BME280;23671;38.090;-122.570;2023-03-04T05:31:06;101400.72;;;10.82;60.95
37832;BME280;23671;38.090;-122.570;2023-03-04T05:33:34;101392.28;;;10.77;61.17
37832;BME280;23671;38.090;-122.570;2023-03-04T05:36:02;101390.69;;;10.75;61.19
37832;BME280;23671;38.090;-122.570;2023-03-04T05:38:29;101393.34;;;10.75;61.17
37832;BME280;23671;38.090;-122.570;2023-03-04T05:41:05;101389.09;;;10.72;61.26
37832;BME280;23671;38.090;-122.570;2023-03-04T05:43:33;101384.16;;;10.68;61.25
37832;BME280;23671;38.090;-122.570;2023-03-04T05:46:02;101386.88;;;10.66;61.34
37832;BME280;23671;38.090;-122.570;2023-03-04T05:48:30;101401.69;;;10.69;61.47
37832;BME280;23671;38.090;-122.570;2023-03-04T05:50:58;101396.63;;;10.66;61.43
37832;BME280;23671;38.090;-122.570;2023-03-04T05:53:27;101391.53;;;10.63;61.38
37832;BME280;23671;38.090;-122.570;2023-03-04T05:55:54;101389.84;;;10.62;61.62
37832;BME280;23671;38.090;-122.570;2023-03-04T05:58:21;101378.66;;;10.58;61.26
37832;BME280;23671;38.090;-122.570;2023-03-04T06:00:48;101378.75;;;10.57;61.50
37832;BME280;23671;38.090;-122.570;2023-03-04T06:03:17;101387.84;;;10.53;61.45
37832;BME280;23671;38.090;-122.570;2023-03-04T06:05:46;101376.53;;;10.51;61.50
37832;BME280;23671;38.090;-122.570;2023-03-04T06:08:13;101378.22;;;10.52;61.55
37832;BME280;23671;38.090;-122.570;2023-03-04T06:10:41;101372.19;;;10.50;61.63
37832;BME280;23671;38.090;-122.570;2023-03-04T06:13:08;101375.88;;;10.47;61.81
37832;BME280;23671;38.090;-122.570;2023-03-04T06:15:36;101364.69;;;10.44;61.74
37832;BME280;23671;38.090;-122.570;2023-03-04T06:18:04;101370.84;;;10.44;61.51
37832;BME280;23671;38.090;-122.570;2023-03-04T06:20:31;101367.56;;;10.41;61.91
37832;BME280;23671;38.090;-122.570;2023-03-04T06:22:58;101358.78;;;10.40;61.81
37832;BME280;23671;38.090;-122.570;2023-03-04T06:25:25;101349.28;;;10.38;61.72
37832;BME280;23671;38.090;-122.570;2023-03-04T06:27:52;101344.22;;;10.35;61.73
37832;BME280;23671;38.090;-122.570;2023-03-04T06:30:20;101347.78;;;10.34;61.60
37832;BME280;23671;38.090;-122.570;2023-03-04T06:32:47;101331.22;;;10.32;62.03
37832;BME280;23671;38.090;-122.570;2023-03-04T06:35:15;101333.13;;;10.30;61.82
37832;BME280;23671;38.090;-122.570;2023-03-04T06:37:43;101328.06;;;10.27;62.05
37832;BME280;23671;38.090;-122.570;2023-03-04T06:40:11;101341.34;;;10.25;61.80
37832;BME280;23671;38.090;-122.570;2023-03-04T06:42:39;101331.84;;;10.23;62.00
37832;BME280;23671;38.090;-122.570;2023-03-04T06:45:08;101345.16;;;10.21;62.06
37832;BME280;23671;38.090;-122.570;2023-03-04T06:47:35;101345.44;;;10.17;62.14
37832;BME280;23671;38.090;-122.570;2023-03-04T06:50:04;101341.03;;;10.17;61.90
37832;BME280;23671;38.090;-122.570;2023-03-04T06:52:31;101329.63;;;10.17;62.14
37832;BME280;23671;38.090;-122.570;2023-03-04T06:54:58;101326.34;;;10.13;61.70
37832;BME280;23671;38.090;-122.570;2023-03-04T06:57:25;101328.34;;;10.10;61.74
37832;BME280;23671;38.090;-122.570;2023-03-04T06:59:52;101325.72;;;10.10;62.06
37832;BME280;23671;38.090;-122.570;2023-03-04T07:02:19;101322.28;;;10.07;62.16
37832;BME280;23671;38.090;-122.570;2023-03-04T07:04:46;101304.06;;;10.04;61.82
37832;BME280;23671;38.090;-122.570;2023-03-04T07:07:13;101317.25;;;10.04;61.91
37832;BME280;23671;38.090;-122.570;2023-03-04T07:09:40;101312.03;;;10.03;62.23
37832;BME280;23671;38.090;-122.570;2023-03-04T07:12:07;101309.41;;;10.03;61.99
37832;BME280;23671;38.090;-122.570;2023-03-04T07:14:34;101315.75;;;10.00;62.16
37832;BME280;23671;38.090;-122.570;2023-03-04T07:17:01;101318.47;;;9.99;61.78
37832;BME280;23671;38.090;-122.570;2023-03-04T07:19:28;101320.38;;;9.97;61.82
37832;BME280;23671;38.090;-122.570;2023-03-04T07:21:55;101325.88;;;9.94;62.41
37832;BME280;23671;38.090;-122.570;2023-03-04T07:24:22;101326.91;;;9.91;62.55
37832;BME280;23671;38.090;-122.570;2023-03-04T07:26:49;101327.84;;;9.90;62.22
37832;BME280;23671;38.090;-122.570;2023-03-04T07:29:16;101329.53;;;9.91;62.24
37832;BME280;23671;38.090;-122.570;2023-03-04T07:31:43;101319.22;;;9.88;61.90
37832;BME280;23671;38.090;-122.570;2023-03-04T07:34:12;101312.34;;;9.86;62.37
37832;BME280;23671;38.090;-122.570;2023-03-04T07:36:39;101323.75;;;9.86;62.21
37832;BME280;23671;38.090;-122.570;2023-03-04T07:39:09;101315.94;;;9.85;62.00
37832;BME280;23671;38.090;-122.570;2023-03-04T07:41:36;101317.81;;;9.83;61.93
37832;BME280;23671;38.090;-122.570;2023-03-04T07:44:06;101311.81;;;9.81;62.02
37832;BME280;23671;38.090;-122.570;2023-03-04T07:46:33;101301.38;;;9.79;61.98
37832;BME280;23671;38.090;-122.570;2023-03-04T07:49:00;101303.03;;;9.80;61.82
37832;BME280;23671;38.090;-122.570;2023-03-04T07:51:27;101313.81;;;9.77;62.44
37832;BME280;23671;38.090;-122.570;2023-03-04T07:53:59;101314.84;;;9.75;61.94
37832;BME280;23671;38.090;-122.570;2023-03-04T07:56:29;101307.03;;;9.73;62.13
37832;BME280;23671;38.090;-122.570;2023-03-04T07:58:57;101307.13;;;9.72;62.09
37832;BME280;23671;38.090;-122.570;2023-03-04T08:01:30;101295.00;;;9.69;62.41
37832;BME280;23671;38.090;-122.570;2023-03-04T08:03:58;101295.94;;;9.68;62.33
37832;BME280;23671;38.090;-122.570;2023-03-04T08:06:26;101296.91;;;9.67;62.06
37832;BME280;23671;38.090;-122.570;2023-03-04T08:08:58;101288.25;;;9.65;62.43
37832;BME280;23671;38.090;-122.570;2023-03-04T08:11:27;101289.16;;;9.64;62.53
37832;BME280;23671;38.090;-122.570;2023-03-04T08:16:40;101287.59;;;9.62;62.20
37832;BME280;23671;38.090;-122.570;2023-03-04T08:19:08;101295.59;;;9.60;62.22
37832;BME280;23671;38.090;-122.570;2023-03-04T08:21:37;101292.25;;;9.58;62.21
37832;BME280;23671;38.090;-122.570;2023-03-04T08:24:04;101308.06;;;9.58;62.28
37832;BME280;23671;38.090;-122.570;2023-03-04T08:26:39;101306.34;;;9.57;62.39
37832;BME280;23671;38.090;-122.570;2023-03-04T08:29:10;101300.22;;;9.57;62.08
37832;BME280;23671;38.090;-122.570;2023-03-04T08:31:37;101304.69;;;9.56;61.87
37832;BME280;23671;38.090;-122.570;2023-03-04T08:34:06;101319.75;;;9.54;62.47
37832;BME280;23671;38.090;-122.570;2023-03-04T08:36:36;101317.28;;;9.51;62.53
37832;BME280;23671;38.090;-122.570;2023-03-04T08:39:03;101325.19;;;9.51;62.17
37832;BME280;23671;38.090;-122.570;2023-03-04T08:41:31;101328.69;;;9.52;62.15
37832;BME280;23671;38.090;-122.570;2023-03-04T08:43:59;101315.63;;;9.50;62.39
37832;BME280;23671;38.090;-122.570;2023-03-04T08:46:27;101316.53;;;9.49;62.05
37832;BME280;23671;38.090;-122.570;2023-03-04T08:48:54;101310.63;;;9.46;62.70
37832;BME280;23671;38.090;-122.570;2023-03-04T08:51:21;101323.69;;;9.47;62.44
37832;BME280;23671;38.090;-122.570;2023-03-04T08:53:49;101324.66;;;9.46;62.00
37832;BME280;23671;38.090;-122.570;2023-03-04T08:56:16;101314.31;;;9.43;62.62
37832;BME280;23671;38.090;-122.570;2023-03-04T08:58:43;101318.53;;;9.46;62.02
37832;BME280;23671;38.090;-122.570;2023-03-04T09:01:12;101319.56;;;9.43;62.74
37832;BME280;23671;38.090;-122.570;2023-03-04T09:03:40;101311.78;;;9.42;62.40
37832;BME280;23671;38.090;-122.570;2023-03-04T09:06:10;101324.19;;;9.40;62.77
37832;BME280;23671;38.090;-122.570;2023-03-04T09:08:38;101311.03;;;9.40;62.07
37832;BME280;23671;38.090;-122.570;2023-03-04T09:11:05;101311.97;;;9.39;62.70
37832;BME280;23671;38.090;-122.570;2023-03-04T09:13:32;101304.16;;;9.37;62.65
37832;BME280;23671;38.090;-122.570;2023-03-04T09:15:59;101319.97;;;9.37;62.44
37832;BME280;23671;38.090;-122.570;2023-03-04T09:18:27;101306.91;;;9.36;62.04
37832;BME280;23671;38.090;-122.570;2023-03-04T09:20:54;101291.28;;;9.33;62.32
37832;BME280;23671;38.090;-122.570;2023-03-04T09:23:22;101293.06;;;9.32;62.27
37832;BME280;23671;38.090;-122.570;2023-03-04T09:25:49;101291.41;;;9.31;61.97
37832;BME280;23671;38.090;-122.570;2023-03-04T09:28:17;101291.41;;;9.31;61.93
37832;BME280;23671;38.090;-122.570;2023-03-04T09:30:45;101276.50;;;9.30;62.56
37832;BME280;23671;38.090;-122.570;2023-03-04T09:33:13;101278.22;;;9.31;62.04
37832;BME280;23671;38.090;-122.570;2023-03-04T09:35:40;101284.41;;;9.30;61.96
37832;BME280;23671;38.090;-122.570;2023-03-04T09:38:08;101284.41;;;9.30;62.16
37832;BME280;23671;38.090;-122.570;2023-03-04T09:40:46;101279.25;;;9.29;62.07
37832;BME280;23671;38.090;-122.570;2023-03-04T09:43:26;101263.63;;;9.26;62.66
37832;BME280;23671;38.090;-122.570;2023-03-04T09:46:02;101267.22;;;9.25;62.38
37832;BME280;23671;38.090;-122.570;2023-03-04T09:48:39;101265.34;;;9.27;62.38
37832;BME280;23671;38.090;-122.570;2023-03-04T09:51:25;101272.38;;;9.26;61.80
37832;BME280;23671;38.090;-122.570;2023-03-04T09:56:41;101239.28;;;9.22;62.39
37832;BME280;23671;38.090;-122.570;2023-03-04T09:59:39;101235.06;;;9.20;62.57
37832;BME280;23671;38.090;-122.570;2023-03-04T10:02:20;101231.59;;;9.19;61.85
37832;BME280;23671;38.090;-122.570;2023-03-04T10:04:59;101248.16;;;9.21;62.00
37832;BME280;23671;38.090;-122.570;2023-03-04T10:07:36;101237.72;;;9.20;61.84
37832;BME280;23671;38.090;-122.570;2023-03-04T10:10:26;101228.84;;;9.21;62.40
37832;BME280;23671;38.090;-122.570;2023-03-04T10:12:58;101219.34;;;9.18;61.88
37832;BME280;23671;38.090;-122.570;2023-03-04T10:15:41;101220.31;;;9.17;62.06
37832;BME280;23671;38.090;-122.570;2023-03-04T10:18:30;101232.63;;;9.16;62.08
37832;BME280;23671;38.090;-122.570;2023-03-04T10:21:31;101232.72;;;9.15;61.87
37832;BME280;23671;38.090;-122.570;2023-03-04T10:24:07;101225.69;;;9.15;61.85
37832;BME280;23671;38.090;-122.570;2023-03-04T10:26:36;101236.41;;;9.12;62.60
37832;BME280;23671;38.090;-122.570;2023-03-04T10:29:04;101232.09;;;9.11;61.93
37832;BME280;23671;38.090;-122.570;2023-03-04T10:31:38;101221.66;;;9.10;62.34
37832;BME280;23671;38.090;-122.570;2023-03-04T10:34:11;101239.13;;;9.11;61.81
37832;BME280;23671;38.090;-122.570;2023-03-04T10:37:01;101244.41;;;9.11;62.58
37832;BME280;23671;38.090;-122.570;2023-03-04T10:39:29;101229.44;;;9.11;61.66
37832;BME280;23671;38.090;-122.570;2023-03-04T10:44:58;101214.91;;;9.06;62.64
37832;BME280;23671;38.090;-122.570;2023-03-04T10:47:28;101199.09;;;9.06;62.64
37832;BME280;23671;38.090;-122.570;2023-03-04T10:49:58;101200.03;;;9.05;62.40
37832;BME280;23671;38.090;-122.570;2023-03-04T10:52:29;101209.81;;;9.03;62.50
37832;BME280;23671;38.090;-122.570;2023-03-04T10:55:03;101214.22;;;9.02;62.60
37832;BME280;23671;38.090;-122.570;2023-03-04T10:57:32;101218.66;;;9.02;61.96
37832;BME280;23671;38.090;-122.570;2023-03-04T11:00:25;101223.84;;;9.03;62.19
37832;BME280;23671;38.090;-122.570;2023-03-04T11:02:53;101233.63;;;9.01;62.14
37832;BME280;23671;38.090;-122.570;2023-03-04T11:05:40;101222.97;;;9.03;62.22
37832;BME280;23671;38.090;-122.570;2023-03-04T11:08:17;101224.88;;;9.01;61.92
37832;BME280;23671;38.090;-122.570;2023-03-04T11:10:48;101220.56;;;9.00;61.96
37832;BME280;23671;38.090;-122.570;2023-03-04T11:13:21;101212.66;;;9.00;62.26
37832;BME280;23671;38.090;-122.570;2023-03-04T11:15:52;101208.41;;;8.97;62.29
37832;BME280;23671;38.090;-122.570;2023-03-04T11:18:53;101196.97;;;8.98;62.53
37832;BME280;23671;38.090;-122.570;2023-03-04T11:21:27;101186.22;;;9.01;62.38
37832;BME280;23671;38.090;-122.570;2023-03-04T11:24:18;101183.13;;;8.95;62.07
37832;BME280;23671;38.090;-122.570;2023-03-04T11:26:46;101191.03;;;8.95;62.41
37832;BME280;23671;38.090;-122.570;2023-03-04T11:32:11;101190.09;;;8.96;62.13
37832;BME280;23671;38.090;-122.570;2023-03-04T11:34:48;101186.72;;;8.94;62.12
37832;BME280;23671;38.090;-122.570;2023-03-04T11:37:47;101178.81;;;8.94;61.87
37832;BME280;23671;38.090;-122.570;2023-03-04T11:40:39;101175.31;;;8.93;62.74
37832;BME280;23671;38.090;-122.570;2023-03-04T11:48:58;101186.19;;;8.89;62.78
37832;BME280;23671;38.090;-122.570;2023-03-04T11:56:51;101178.19;;;8.90;62.12
37832;BME280;23671;38.090;-122.570;2023-03-04T12:02:35;101171.31;;;8.88;62.64
37832;BME280;23671;38.090;-122.570;2023-03-04T12:05:36;101169.53;;;8.88;62.00
37832;BME280;23671;38.090;-122.570;2023-03-04T12:08:16;101163.41;;;8.88;61.84
37832;BME280;23671;38.090;-122.570;2023-03-04T12:14:01;101165.50;;;8.83;62.71
37832;BME280;23671;38.090;-122.570;2023-03-04T12:17:00;101166.34;;;8.83;61.76
37832;BME280;23671;38.090;-122.570;2023-03-04T12:22:50;101168.31;;;8.80;62.78
37832;BME280;23671;38.090;-122.570;2023-03-04T12:25:41;101164.19;;;8.76;62.64
37832;BME280;23671;38.090;-122.570;2023-03-04T12:39:59;101140.81;;;8.71;62.25
37832;BME280;23671;38.090;-122.570;2023-03-04T12:48:05;101121.72;;;8.68;62.11
37832;BME280;23671;38.090;-122.570;2023-03-04T12:51:16;101128.91;;;8.66;62.12
37832;BME280;23671;38.090;-122.570;2023-03-04T12:53:53;101137.50;;;8.68;62.38
37832;BME280;23671;38.090;-122.570;2023-03-04T12:58:50;101123.63;;;8.66;62.46
37832;BME280;23671;38.090;-122.570;2023-03-04T13:01:35;101120.25;;;8.64;62.69
37832;BME280;23671;38.090;-122.570;2023-03-04T13:09:29;101102.75;;;8.63;62.23
37832;BME280;23671;38.090;-122.570;2023-03-04T13:12:20;101120.53;;;8.59;62.10
37832;BME280;23671;38.090;-122.570;2023-03-04T13:18:01;101112.09;;;8.54;63.00
37832;BME280;23671;38.090;-122.570;2023-03-04T13:20:33;101110.50;;;8.52;62.25
37832;BME280;23671;38.090;-122.570;2023-03-04T13:25:44;101103.75;;;8.48;63.07
37832;BME280;23671;38.090;-122.570;2023-03-04T13:28:33;101091.44;;;8.48;62.90
37832;BME280;23671;38.090;-122.570;2023-03-04T13:36:33;101101.97;;;8.48;62.63
37832;BME280;23671;38.090;-122.570;2023-03-04T13:39:25;101093.34;;;8.46;62.08
37832;BME280;23671;38.090;-122.570;2023-03-04T13:41:53;101087.22;;;8.46;62.74
37832;BME280;23671;38.090;-122.570;2023-03-04T13:47:20;101077.84;;;8.42;62.39
37832;BME280;23671;38.090;-122.570;2023-03-04T13:49:48;101078.78;;;8.41;62.40
37832;BME280;23671;38.090;-122.570;2023-03-04T13:52:38;101072.56;;;8.42;62.84
37832;BME280;23671;38.090;-122.570;2023-03-04T13:58:25;101075.41;;;8.39;62.89